createdAt,value
2018-06-29T00:01:58.691Z,99.90
2018-06-29T00:04:26.785Z,99.90
2018-06-29T00:06:54.966Z,99.90
2018-06-29T00:09:23.215Z,99.90
2018-06-29T00:14:19.348Z,99.90
2018-06-29T00:16:47.528Z,99.90
2018-06-29T00:19:15.925Z,99.90
2018-06-29T00:21:44.188Z,99.90
2018-06-29T00:26:40.536Z,99.90
2018-06-29T00:31:36.935Z,99.90
2018-06-29T00:34:05.297Z,99.90
2018-06-29T00:36:33.472Z,99.90
2018-06-29T00:39:01.809Z,99.90
2018-06-29T00:41:29.952Z,99.90
2018-06-29T00:43:58.133Z,99.90
2018-06-29T00:46:26.298Z,99.90
2018-06-29T00:48:54.511Z,99.90
2018-06-29T00:53:50.607Z,99.90
2018-06-29T00:56:18.756Z,99.90
2018-06-29T00:58:46.925Z,99.90
2018-06-29T01:01:15.102Z,99.90
2018-06-29T01:03:43.302Z,99.90
2018-06-29T01:06:11.474Z,99.90
2018-06-29T01:08:39.667Z,99.90
2018-06-29T01:11:07.867Z,99.90
2018-06-29T01:13:36.029Z,99.90
2018-06-29T01:16:04.237Z,99.90
2018-06-29T01:18:32.498Z,99.90
2018-06-29T01:21:01.289Z,99.90
2018-06-29T01:25:57.422Z,99.90
2018-06-29T01:28:25.657Z,99.90
2018-06-29T01:30:53.876Z,99.90
2018-06-29T01:33:22.033Z,99.90
2018-06-29T01:35:50.325Z,99.90
2018-06-29T01:40:46.392Z,99.90
2018-06-29T01:43:14.556Z,99.90
2018-06-29T01:45:42.748Z,99.90
2018-06-29T01:48:10.884Z,99.90
2018-06-29T01:50:39.242Z,99.90
2018-06-29T01:53:07.438Z,99.90
2018-06-29T01:55:35.578Z,99.90
2018-06-29T01:58:03.742Z,99.90
2018-06-29T02:00:31.918Z,99.90
2018-06-29T02:03:00.081Z,99.90
2018-06-29T02:05:28.273Z,99.90
2018-06-29T02:07:56.494Z,99.90
2018-06-29T02:10:24.596Z,99.90
2018-06-29T02:12:52.782Z,99.90
2018-06-29T02:15:20.945Z,99.90
2018-06-29T02:17:49.092Z,99.90
2018-06-29T02:20:17.265Z,99.90
2018-06-29T02:22:45.436Z,99.90
2018-06-29T02:27:41.555Z,99.90
2018-06-29T02:30:09.687Z,99.90
2018-06-29T02:32:37.920Z,99.90
2018-06-29T02:35:06.097Z,99.90
2018-06-29T02:40:02.361Z,99.90
2018-06-29T02:42:30.547Z,99.90
2018-06-29T02:44:58.712Z,99.90
2018-06-29T02:47:26.881Z,99.90
2018-06-29T02:49:55.032Z,99.90
2018-06-29T02:52:23.184Z,99.90
2018-06-29T02:54:51.331Z,99.90
2018-06-29T02:57:19.493Z,99.90
2018-06-29T02:59:48.449Z,99.90
2018-06-29T03:04:44.871Z,99.90
2018-06-29T03:07:13.474Z,99.90
2018-06-29T03:09:41.694Z,99.90
2018-06-29T03:12:09.842Z,99.90
2018-06-29T03:17:05.925Z,99.90
2018-06-29T03:19:34.090Z,99.90
2018-06-29T03:22:02.263Z,99.90
2018-06-29T03:24:30.410Z,99.90
2018-06-29T03:26:58.585Z,99.90
2018-06-29T03:29:26.761Z,99.90
2018-06-29T03:31:54.936Z,99.90
2018-06-29T03:34:23.113Z,99.90
2018-06-29T03:36:51.284Z,99.90
2018-06-29T03:39:19.446Z,99.90
2018-06-29T03:44:15.550Z,99.90
2018-06-29T03:46:43.741Z,99.90
2018-06-29T03:49:11.913Z,99.90
2018-06-29T03:51:40.105Z,99.90
2018-06-29T03:54:08.260Z,99.90
2018-06-29T03:56:36.434Z,99.90
2018-06-29T03:59:04.601Z,99.90
2018-06-29T04:01:32.804Z,99.90
2018-06-29T04:04:00.969Z,99.90
2018-06-29T04:06:29.113Z,99.90
2018-06-29T04:08:57.272Z,99.90
2018-06-29T04:11:25.453Z,99.90
2018-06-29T04:13:53.637Z,99.90
2018-06-29T04:16:21.838Z,99.90
2018-06-29T04:18:50.037Z,99.90
2018-06-29T04:21:18.206Z,99.90
2018-06-29T04:23:46.397Z,99.90
2018-06-29T04:26:14.642Z,99.90
2018-06-29T04:28:42.827Z,99.90
2018-06-29T04:33:38.956Z,99.90
2018-06-29T04:38:35.042Z,99.90
2018-06-29T04:41:03.194Z,99.90
2018-06-29T04:43:31.349Z,99.90
2018-06-29T04:48:28.237Z,99.90
2018-06-29T04:50:56.393Z,99.90
2018-06-29T04:55:52.504Z,99.90
2018-06-29T04:58:20.800Z,99.90
2018-06-29T05:03:17.245Z,99.90
2018-06-29T05:05:45.386Z,99.90
2018-06-29T05:08:13.579Z,99.90
2018-06-29T05:10:41.725Z,99.90
2018-06-29T05:13:10.177Z,99.90
2018-06-29T05:15:38.409Z,99.90
2018-06-29T05:18:06.916Z,99.90
2018-06-29T05:20:35.074Z,99.90
2018-06-29T05:23:03.247Z,99.90
2018-06-29T05:25:31.449Z,99.90
2018-06-29T05:30:27.550Z,99.90
2018-06-29T05:32:55.742Z,99.90
2018-06-29T05:35:23.916Z,99.90
2018-06-29T05:37:52.090Z,99.90
2018-06-29T05:40:20.232Z,99.90
2018-06-29T05:42:48.391Z,99.90
2018-06-29T05:45:16.549Z,99.90
2018-06-29T05:47:44.701Z,99.90
2018-06-29T05:50:12.846Z,99.90
2018-06-29T05:52:41.013Z,99.90
2018-06-29T05:55:09.224Z,99.90
2018-06-29T05:57:37.369Z,99.90
2018-06-29T06:00:05.757Z,99.90
2018-06-29T06:02:33.947Z,99.90
2018-06-29T06:07:30.057Z,99.90
2018-06-29T06:09:58.289Z,99.90
2018-06-29T06:12:26.429Z,99.90
2018-06-29T06:14:54.613Z,99.90
2018-06-29T06:20:02.049Z,99.90
2018-06-29T06:22:30.193Z,99.90
2018-06-29T06:27:26.860Z,99.90
2018-06-29T06:29:55.020Z,99.90
2018-06-29T06:34:51.303Z,99.90
2018-06-29T06:37:20.073Z,99.90
2018-06-29T06:39:48.404Z,99.90
2018-06-29T06:42:16.638Z,99.90
2018-06-29T06:44:44.909Z,99.90
2018-06-29T06:47:13.418Z,99.90
2018-06-29T06:49:41.577Z,99.90
2018-06-29T06:52:09.743Z,99.90
2018-06-29T06:54:37.926Z,99.90
2018-06-29T06:57:06.168Z,99.90
2018-06-29T07:02:02.309Z,99.90
2018-06-29T07:06:58.434Z,99.90
2018-06-29T07:09:26.614Z,99.90
2018-06-29T07:11:54.796Z,99.90
2018-06-29T07:16:50.975Z,99.90
2018-06-29T07:19:19.216Z,99.90
2018-06-29T07:24:15.330Z,99.90
2018-06-29T07:26:43.505Z,99.90
2018-06-29T07:29:11.682Z,99.90
2018-06-29T07:31:39.855Z,99.90
2018-06-29T07:34:08.032Z,99.90
2018-06-29T07:36:36.213Z,99.90
2018-06-29T07:39:07.257Z,99.90
2018-06-29T07:41:35.416Z,97.60
2018-06-29T07:44:03.642Z,96.50
2018-06-29T07:48:59.752Z,89.20
2018-06-29T07:51:27.936Z,87.70
2018-06-29T07:53:56.081Z,79.10
2018-06-29T07:56:24.246Z,81.50
2018-06-29T07:58:52.506Z,85.00
2018-06-29T08:01:20.605Z,88.60
2018-06-29T08:03:48.777Z,88.10
2018-06-29T08:06:16.944Z,91.60
2018-06-29T08:08:45.231Z,91.60
2018-06-29T08:11:13.401Z,92.10
2018-06-29T08:13:41.585Z,90.60
2018-06-29T08:16:09.759Z,90.10
2018-06-29T08:18:37.920Z,84.80
2018-06-29T08:21:06.209Z,84.90
2018-06-29T08:23:34.676Z,84.20
2018-06-29T08:26:15.087Z,82.20
2018-06-29T08:28:43.233Z,83.80
2018-06-29T08:31:11.705Z,81.10
2018-06-29T08:33:40.059Z,81.80
2018-06-29T08:36:08.600Z,75.10
2018-06-29T08:38:37.394Z,74.90
2018-06-29T08:41:05.547Z,72.00
2018-06-29T08:43:33.788Z,69.60
2018-06-29T08:46:01.965Z,67.80
2018-06-29T08:48:30.160Z,66.40
2018-06-29T08:50:58.953Z,70.00
2018-06-29T08:53:27.220Z,71.00
2018-06-29T08:55:55.388Z,69.60
2018-06-29T08:58:23.562Z,70.50
2018-06-29T09:00:52.019Z,65.60
2018-06-29T09:03:20.305Z,63.10
2018-06-29T09:05:48.481Z,63.00
2018-06-29T09:08:16.687Z,60.30
2018-06-29T09:10:45.165Z,59.00
2018-06-29T09:13:13.357Z,62.10
2018-06-29T09:18:09.544Z,56.80
2018-06-29T09:20:37.745Z,56.10
2018-06-29T09:23:06.764Z,54.70
2018-06-29T09:25:34.926Z,54.70
2018-06-29T09:28:03.164Z,54.50
2018-06-29T09:30:31.355Z,54.30
2018-06-29T09:32:59.529Z,57.90
2018-06-29T09:35:27.701Z,57.50
2018-06-29T09:37:55.886Z,57.10
2018-06-29T09:40:24.053Z,60.30
2018-06-29T09:42:52.350Z,59.40
2018-06-29T09:45:20.517Z,59.30
2018-06-29T09:47:48.835Z,57.50
2018-06-29T09:50:16.957Z,57.60
2018-06-29T09:52:45.124Z,56.20
2018-06-29T09:55:13.285Z,55.10
2018-06-29T09:57:41.457Z,55.30
2018-06-29T10:00:11.820Z,57.20
2018-06-29T10:02:39.988Z,55.40
2018-06-29T10:05:08.140Z,57.20
2018-06-29T10:07:36.313Z,58.50
2018-06-29T10:10:04.509Z,59.40
2018-06-29T10:12:32.686Z,56.90
2018-06-29T10:15:00.877Z,57.90
2018-06-29T10:19:57.062Z,53.30
2018-06-29T10:22:25.173Z,51.80
2018-06-29T10:24:53.370Z,51.50
2018-06-29T10:27:21.544Z,50.00
2018-06-29T10:29:49.718Z,51.50
2018-06-29T10:32:17.915Z,49.40
2018-06-29T10:34:46.072Z,51.70
2018-06-29T10:37:14.232Z,50.40
2018-06-29T10:39:42.384Z,49.40
2018-06-29T10:42:10.561Z,48.50
2018-06-29T10:44:38.776Z,47.80
2018-06-29T10:47:06.919Z,49.90
2018-06-29T10:49:35.076Z,48.10
2018-06-29T10:52:03.243Z,49.00
2018-06-29T10:54:31.423Z,49.80
2018-06-29T10:56:59.605Z,48.90
2018-06-29T10:59:27.757Z,48.20
2018-06-29T11:01:55.927Z,48.70
2018-06-29T11:04:24.092Z,49.50
2018-06-29T11:06:52.283Z,48.50
2018-06-29T11:09:20.422Z,49.10
2018-06-29T11:11:48.753Z,47.00
2018-06-29T11:14:16.938Z,49.10
2018-06-29T11:16:45.120Z,48.80
2018-06-29T11:19:13.292Z,48.30
2018-06-29T11:21:41.444Z,51.10
2018-06-29T11:24:09.648Z,50.50
2018-06-29T11:29:05.769Z,51.90
2018-06-29T11:31:33.930Z,49.20
2018-06-29T11:34:02.081Z,48.70
2018-06-29T11:36:30.267Z,48.10
2018-06-29T11:38:58.430Z,49.10
2018-06-29T11:41:26.592Z,47.40
2018-06-29T11:43:54.817Z,50.60
2018-06-29T11:46:22.980Z,50.60
2018-06-29T11:48:51.148Z,49.20
2018-06-29T11:51:19.332Z,50.50
2018-06-29T11:53:47.498Z,49.50
2018-06-29T11:56:15.669Z,47.40
2018-06-29T11:58:43.848Z,47.50
2018-06-29T12:01:12.017Z,48.40
2018-06-29T12:03:40.198Z,45.20
2018-06-29T12:06:08.379Z,44.70
2018-06-29T12:08:36.561Z,45.30
2018-06-29T12:11:04.734Z,46.90
2018-06-29T12:13:32.923Z,47.00
2018-06-29T12:18:29.023Z,46.60
2018-06-29T12:20:57.188Z,48.20
2018-06-29T12:23:25.363Z,48.70
2018-06-29T12:25:53.489Z,48.00
2018-06-29T12:30:49.587Z,48.00
2018-06-29T12:33:17.757Z,48.70
2018-06-29T12:35:45.914Z,48.80
2018-06-29T12:38:14.250Z,46.70
2018-06-29T12:43:10.491Z,47.20
2018-06-29T12:45:38.749Z,46.30
2018-06-29T12:48:07.017Z,46.10
2018-06-29T12:50:35.310Z,45.40
2018-06-29T12:53:03.572Z,46.10
2018-06-29T12:55:31.907Z,45.90
2018-06-29T12:58:00.179Z,46.10
2018-06-29T13:00:28.501Z,45.70
2018-06-29T13:02:56.748Z,46.50
2018-06-29T13:05:25.146Z,46.30
2018-06-29T13:07:53.645Z,46.90
2018-06-29T13:10:21.942Z,48.70
2018-06-29T13:12:50.173Z,48.40
2018-06-29T13:15:18.428Z,47.90
2018-06-29T13:17:46.748Z,48.40
2018-06-29T13:20:15.021Z,47.70
2018-06-29T13:22:43.316Z,47.30
2018-06-29T13:25:11.617Z,48.70
2018-06-29T13:27:39.870Z,49.00
2018-06-29T13:30:08.195Z,48.70
2018-06-29T13:32:36.496Z,48.80
2018-06-29T13:35:04.856Z,50.10
2018-06-29T13:37:33.077Z,51.60
2018-06-29T13:40:01.387Z,49.50
2018-06-29T13:42:29.689Z,48.50
2018-06-29T13:44:57.917Z,50.20
2018-06-29T13:47:26.169Z,49.70
2018-06-29T13:49:54.504Z,49.70
2018-06-29T13:52:22.781Z,49.10
2018-06-29T13:54:51.142Z,46.70
2018-06-29T13:57:19.369Z,46.80
2018-06-29T13:59:47.619Z,47.20
2018-06-29T14:02:15.839Z,48.20
2018-06-29T14:04:44.112Z,48.40
2018-06-29T14:07:12.412Z,49.40
2018-06-29T14:09:40.649Z,50.30
2018-06-29T14:12:08.958Z,48.10
2018-06-29T14:14:37.325Z,48.10
2018-06-29T14:17:05.570Z,47.30
2018-06-29T14:19:33.886Z,48.20
2018-06-29T14:22:02.141Z,47.00
2018-06-29T14:24:30.474Z,45.90
2018-06-29T14:26:58.737Z,46.40
2018-06-29T14:31:54.969Z,47.90
2018-06-29T14:34:23.242Z,47.20
2018-06-29T14:39:19.589Z,47.90
2018-06-29T14:44:15.852Z,45.80
2018-06-29T14:46:44.192Z,46.70
2018-06-29T14:49:12.486Z,46.70
2018-06-29T14:51:40.813Z,46.10
2018-06-29T14:54:09.054Z,47.20
2018-06-29T14:59:05.301Z,46.00
2018-06-29T15:04:01.566Z,46.00
2018-06-29T15:06:29.861Z,46.10
2018-06-29T15:08:58.101Z,46.30
2018-06-29T15:13:54.361Z,46.40
2018-06-29T15:16:22.609Z,46.30
2018-06-29T15:18:50.895Z,46.20
2018-06-29T15:23:47.109Z,48.30
2018-06-29T15:26:15.377Z,46.70
2018-06-29T15:28:43.633Z,46.40
2018-06-29T15:31:11.943Z,46.20
2018-06-29T15:33:40.196Z,46.70
2018-06-29T15:36:08.501Z,47.70
2018-06-29T15:38:36.821Z,46.30
2018-06-29T15:41:05.232Z,46.90
2018-06-29T15:43:33.498Z,46.50
2018-06-29T15:46:01.765Z,46.70
2018-06-29T15:48:30.014Z,45.50
2018-06-29T15:53:26.287Z,45.30
2018-06-29T15:55:54.544Z,45.60
2018-06-29T15:58:22.787Z,46.40
2018-06-29T16:00:51.056Z,46.40
2018-06-29T16:03:19.350Z,47.10
2018-06-29T16:05:47.657Z,46.10
2018-06-29T16:08:15.957Z,47.00
2018-06-29T16:10:44.222Z,47.20
2018-06-29T16:13:12.489Z,47.30
2018-06-29T16:15:40.882Z,48.10
2018-06-29T16:18:09.076Z,47.70
2018-06-29T16:20:37.341Z,48.00
2018-06-29T16:23:05.793Z,48.70
2018-06-29T16:25:34.036Z,48.80
2018-06-29T16:28:02.265Z,48.80
2018-06-29T16:30:30.533Z,48.80
2018-06-29T16:32:58.778Z,49.10
2018-06-29T16:40:23.053Z,49.20
2018-06-29T16:42:51.365Z,48.50
2018-06-29T16:45:19.656Z,48.10
2018-06-29T16:50:15.975Z,49.60
2018-06-29T16:52:44.210Z,49.10
2018-06-29T16:55:12.506Z,49.10
2018-06-29T16:57:40.774Z,48.60
2018-06-29T17:00:09.082Z,47.20
2018-06-29T17:02:37.444Z,48.10
2018-06-29T17:05:05.737Z,48.50
2018-06-29T17:07:34.001Z,48.80
2018-06-29T17:10:02.221Z,49.00
2018-06-29T17:14:58.509Z,48.00
2018-06-29T17:17:26.873Z,47.50
2018-06-29T17:19:55.170Z,48.00
2018-06-29T17:22:23.329Z,48.00
2018-06-29T17:24:51.568Z,48.60
2018-06-29T17:29:47.866Z,48.50
2018-06-29T17:32:16.162Z,48.40
2018-06-29T17:34:44.405Z,48.90
2018-06-29T17:37:12.677Z,47.90
2018-06-29T17:39:40.953Z,47.50
2018-06-29T17:42:09.232Z,48.00
2018-06-29T17:44:37.506Z,49.20
2018-06-29T17:47:05.834Z,49.30
2018-06-29T17:49:34.155Z,49.00
2018-06-29T17:52:02.417Z,48.70
2018-06-29T17:54:30.733Z,49.10
2018-06-29T17:56:59.012Z,49.00
2018-06-29T17:59:27.306Z,48.30
2018-06-29T18:01:55.476Z,48.50
2018-06-29T18:04:23.700Z,49.20
2018-06-29T18:06:51.825Z,49.90
2018-06-29T18:09:19.932Z,50.20
2018-06-29T18:11:48.123Z,49.80
2018-06-29T18:16:44.140Z,50.00
2018-06-29T18:21:40.206Z,50.40
2018-06-29T18:24:09.128Z,50.40
2018-06-29T18:26:37.277Z,50.30
2018-06-29T18:29:05.629Z,50.40
2018-06-29T18:31:33.784Z,50.10
2018-06-29T18:34:02.011Z,50.70
2018-06-29T18:36:30.158Z,51.30
2018-06-29T18:38:58.316Z,51.40
2018-06-29T18:41:26.441Z,52.00
2018-06-29T18:43:54.592Z,53.10
2018-06-29T18:46:22.782Z,52.60
2018-06-29T18:48:50.940Z,53.10
2018-06-29T18:51:19.097Z,53.60
2018-06-29T18:53:47.274Z,53.70
2018-06-29T18:56:15.492Z,54.70
2018-06-29T18:58:43.764Z,53.80
2018-06-29T19:01:11.906Z,54.30
2018-06-29T19:03:40.056Z,55.60
2018-06-29T19:08:36.103Z,55.90
2018-06-29T19:11:04.239Z,56.30
2018-06-29T19:13:32.397Z,58.20
2018-06-29T19:16:00.554Z,57.60
2018-06-29T19:18:28.762Z,59.70
2018-06-29T19:20:56.881Z,59.90
2018-06-29T19:23:25.048Z,59.40
2018-06-29T19:28:21.210Z,59.80
2018-06-29T19:30:49.372Z,60.20
2018-06-29T19:33:17.507Z,59.20
2018-06-29T19:35:45.793Z,58.90
2018-06-29T19:38:14.106Z,59.40
2018-06-29T19:40:42.244Z,58.80
2018-06-29T19:43:10.393Z,58.80
2018-06-29T19:45:38.528Z,58.50
2018-06-29T19:48:06.684Z,59.10
2018-06-29T19:53:02.737Z,61.90
2018-06-29T19:55:30.897Z,63.50
2018-06-29T20:00:26.972Z,64.50
2018-06-29T20:02:55.129Z,64.50
2018-06-29T20:05:23.297Z,63.50
2018-06-29T20:07:51.507Z,65.80
2018-06-29T20:10:19.676Z,67.20
2018-06-29T20:12:47.915Z,69.30
2018-06-29T20:20:12.103Z,72.00
2018-06-29T20:22:40.226Z,73.30
2018-06-29T20:25:08.392Z,75.90
2018-06-29T20:27:36.942Z,78.30
2018-06-29T20:30:05.894Z,82.80
2018-06-29T20:32:34.020Z,85.50
2018-06-29T20:35:02.165Z,90.80
2018-06-29T20:37:30.367Z,92.70
2018-06-29T20:42:26.606Z,95.10
2018-06-29T20:44:54.885Z,97.30
2018-06-29T20:52:19.065Z,99.90
2018-06-29T20:54:47.304Z,99.90
2018-06-29T20:57:15.594Z,99.90
2018-06-29T20:59:43.897Z,99.90
2018-06-29T21:02:12.137Z,99.90
2018-06-29T21:04:40.489Z,99.90
2018-06-29T21:07:08.702Z,99.90
2018-06-29T21:09:36.949Z,99.90
2018-06-29T21:12:05.322Z,99.90
2018-06-29T21:14:33.595Z,99.90
2018-06-29T21:19:29.669Z,99.90
2018-06-29T21:21:57.845Z,99.90
2018-06-29T21:24:26.019Z,99.90
2018-06-29T21:26:54.189Z,99.90
2018-06-29T21:29:22.336Z,99.90
2018-06-29T21:31:50.515Z,99.90
2018-06-29T21:34:18.673Z,99.90
2018-06-29T21:36:46.848Z,99.90
2018-06-29T21:41:42.913Z,99.90
2018-06-29T21:44:11.071Z,99.90
2018-06-29T21:46:39.245Z,99.90
2018-06-29T21:49:07.412Z,99.90
2018-06-29T21:54:03.468Z,99.90
2018-06-29T21:56:31.662Z,99.90
2018-06-29T21:58:59.797Z,99.90
2018-06-29T22:03:55.861Z,99.90
2018-06-29T22:06:24.030Z,99.90
2018-06-29T22:08:52.193Z,99.90
2018-06-29T22:13:48.269Z,99.90
2018-06-29T22:16:16.456Z,99.90
2018-06-29T22:18:44.577Z,99.90
2018-06-29T22:23:40.655Z,99.90
2018-06-29T22:26:08.813Z,99.90
2018-06-29T22:28:36.960Z,99.90
2018-06-29T22:31:05.131Z,99.90
2018-06-29T22:33:33.324Z,99.90
2018-06-29T22:38:29.384Z,99.90
2018-06-29T22:40:57.544Z,99.90
2018-06-29T22:43:26.109Z,99.90
2018-06-29T22:45:54.284Z,99.90
2018-06-29T22:50:50.362Z,99.90
2018-06-29T22:53:18.500Z,99.90
2018-06-29T22:55:46.690Z,99.90
2018-06-29T23:00:42.750Z,99.90
2018-06-29T23:03:12.213Z,99.90
2018-06-29T23:05:40.376Z,99.90
2018-06-29T23:08:09.892Z,99.90
2018-06-29T23:10:38.177Z,99.90
2018-06-29T23:15:34.438Z,99.90
2018-06-29T23:18:02.605Z,99.90
2018-06-29T23:22:58.677Z,99.90
2018-06-29T23:25:26.830Z,99.90
2018-06-29T23:27:55.004Z,99.90
2018-06-29T23:30:23.156Z,99.90
2018-06-29T23:35:19.235Z,99.90
2018-06-29T23:37:47.385Z,99.90
2018-06-29T23:40:15.528Z,99.90
2018-06-29T23:42:43.700Z,99.90
2018-06-29T23:45:11.849Z,99.90
2018-06-29T23:47:40.006Z,99.90
2018-06-29T23:50:08.176Z,99.90
2018-06-29T23:52:36.348Z,99.90
2018-06-29T23:55:04.500Z,99.90
